sensor_id;sensor_type;location;lat;lon;timestamp;P1;durP1;ratioP1;P2;durP2;ratioP2
23754;SDS011;12057;52.042;6.830;2023-05-07T00:03:13;22.27;;;14.90;;
23754;SDS011;12057;52.042;6.830;2023-05-07T00:08:14;24.50;;;15.40;;
23754;SDS011;12057;52.042;6.830;2023-05-07T00:13:15;22.23;;;15.27;;
23754;SDS011;12057;52.042;6.830;2023-05-07T00:18:16;21.17;;;15.52;;
23754;SDS011;12057;52.042;6.830;2023-05-07T00:23:21;36.08;;;16.38;;
23754;SDS011;12057;52.042;6.830;2023-05-07T00:28:22;22.70;;;14.95;;
23754;SDS011;12057;52.042;6.830;2023-05-07T00:33:22;30.57;;;16.50;;
23754;SDS011;12057;52.042;6.830;2023-05-07T00:38:23;24.33;;;15.57;;
23754;SDS011;12057;52.042;6.830;2023-05-07T00:43:24;27.13;;;16.10;;
23754;SDS011;12057;52.042;6.830;2023-05-07T00:48:25;25.83;;;16.10;;
23754;SDS011;12057;52.042;6.830;2023-05-07T00:53:26;33.47;;;16.70;;
23754;SDS011;12057;52.042;6.830;2023-05-07T00:58:27;28.08;;;17.50;;
23754;SDS011;12057;52.042;6.830;2023-05-07T01:03:28;24.73;;;17.30;;
23754;SDS011;12057;52.042;6.830;2023-05-07T01:08:29;30.00;;;17.30;;
23754;SDS011;12057;52.042;6.830;2023-05-07T01:13:31;26.80;;;18.08;;
23754;SDS011;12057;52.042;6.830;2023-05-07T01:18:33;27.77;;;18.88;;
23754;SDS011;12057;52.042;6.830;2023-05-07T01:23:34;33.38;;;20.88;;
23754;SDS011;12057;52.042;6.830;2023-05-07T01:28:36;29.17;;;20.35;;
23754;SDS011;12057;52.042;6.830;2023-05-07T01:33:36;35.47;;;22.37;;
23754;SDS011;12057;52.042;6.830;2023-05-07T01:38:40;37.65;;;22.80;;
23754;SDS011;12057;52.042;6.830;2023-05-07T01:43:42;37.75;;;24.92;;
23754;SDS011;12057;52.042;6.830;2023-05-07T01:48:44;33.53;;;22.52;;
23754;SDS011;12057;52.042;6.830;2023-05-07T01:53:46;37.17;;;24.25;;
23754;SDS011;12057;52.042;6.830;2023-05-07T01:58:50;39.50;;;24.92;;
23754;SDS011;12057;52.042;6.830;2023-05-07T02:03:51;39.88;;;25.15;;
23754;SDS011;12057;52.042;6.830;2023-05-07T02:08:53;39.78;;;26.60;;
23754;SDS011;12057;52.042;6.830;2023-05-07T02:13:54;46.93;;;26.60;;
23754;SDS011;12057;52.042;6.830;2023-05-07T02:18:55;41.83;;;27.07;;
23754;SDS011;12057;52.042;6.830;2023-05-07T02:23:56;39.53;;;24.98;;
23754;SDS011;12057;52.042;6.830;2023-05-07T02:28:57;39.23;;;25.43;;
23754;SDS011;12057;52.042;6.830;2023-05-07T02:33:58;40.73;;;26.83;;
23754;SDS011;12057;52.042;6.830;2023-05-07T02:38:58;44.07;;;27.60;;
23754;SDS011;12057;52.042;6.830;2023-05-07T02:43:59;42.50;;;26.63;;
23754;SDS011;12057;52.042;6.830;2023-05-07T02:49:00;47.17;;;27.57;;
23754;SDS011;12057;52.042;6.830;2023-05-07T02:54:01;47.17;;;27.17;;
23754;SDS011;12057;52.042;6.830;2023-05-07T02:59:01;41.93;;;26.87;;
23754;SDS011;12057;52.042;6.830;2023-05-07T03:04:02;50.27;;;27.40;;
23754;SDS011;12057;52.042;6.830;2023-05-07T03:09:03;43.97;;;26.83;;
23754;SDS011;12057;52.042;6.830;2023-05-07T03:14:04;41.40;;;27.43;;
23754;SDS011;12057;52.042;6.830;2023-05-07T03:19:05;44.23;;;26.60;;
23754;SDS011;12057;52.042;6.830;2023-05-07T03:24:05;45.07;;;26.60;;
23754;SDS011;12057;52.042;6.830;2023-05-07T03:29:06;47.23;;;25.90;;
23754;SDS011;12057;52.042;6.830;2023-05-07T03:34:07;51.17;;;28.63;;
23754;SDS011;12057;52.042;6.830;2023-05-07T03:39:08;51.00;;;25.37;;
23754;SDS011;12057;52.042;6.830;2023-05-07T03:44:08;48.93;;;25.57;;
23754;SDS011;12057;52.042;6.830;2023-05-07T03:49:09;48.00;;;27.20;;
23754;SDS011;12057;52.042;6.830;2023-05-07T03:54:10;49.77;;;27.93;;
23754;SDS011;12057;52.042;6.830;2023-05-07T03:59:11;56.47;;;27.23;;
23754;SDS011;12057;52.042;6.830;2023-05-07T04:04:13;45.88;;;27.10;;
23754;SDS011;12057;52.042;6.830;2023-05-07T04:09:14;51.17;;;29.03;;
23754;SDS011;12057;52.042;6.830;2023-05-07T04:14:14;54.10;;;27.23;;
23754;SDS011;12057;52.042;6.830;2023-05-07T04:19:15;47.37;;;26.97;;
23754;SDS011;12057;52.042;6.830;2023-05-07T04:24:16;58.43;;;28.47;;
23754;SDS011;12057;52.042;6.830;2023-05-07T04:29:17;54.03;;;27.63;;
23754;SDS011;12057;52.042;6.830;2023-05-07T04:34:17;58.53;;;26.73;;
23754;SDS011;12057;52.042;6.830;2023-05-07T04:39:18;62.33;;;27.53;;
23754;SDS011;12057;52.042;6.830;2023-05-07T04:44:19;55.77;;;29.67;;
23754;SDS011;12057;52.042;6.830;2023-05-07T04:49:20;59.33;;;28.90;;
23754;SDS011;12057;52.042;6.830;2023-05-07T04:54:20;58.63;;;29.17;;
23754;SDS011;12057;52.042;6.830;2023-05-07T04:59:21;55.17;;;30.10;;
23754;SDS011;12057;52.042;6.830;2023-05-07T05:04:22;62.13;;;29.37;;
23754;SDS011;12057;52.042;6.830;2023-05-07T05:09:23;57.33;;;29.37;;
23754;SDS011;12057;52.042;6.830;2023-05-07T05:14:23;52.50;;;27.77;;
23754;SDS011;12057;52.042;6.830;2023-05-07T05:19:24;68.47;;;30.23;;
23754;SDS011;12057;52.042;6.830;2023-05-07T05:24:25;53.33;;;29.63;;
23754;SDS011;12057;52.042;6.830;2023-05-07T05:29:26;56.80;;;30.13;;
23754;SDS011;12057;52.042;6.830;2023-05-07T05:34:26;57.87;;;29.33;;
23754;SDS011;12057;52.042;6.830;2023-05-07T05:39:27;55.27;;;30.50;;
23754;SDS011;12057;52.042;6.830;2023-05-07T05:44:28;60.93;;;31.20;;
23754;SDS011;12057;52.042;6.830;2023-05-07T05:49:29;53.03;;;29.33;;
23754;SDS011;12057;52.042;6.830;2023-05-07T05:54:30;59.47;;;30.67;;
23754;SDS011;12057;52.042;6.830;2023-05-07T05:59:30;63.37;;;31.37;;
23754;SDS011;12057;52.042;6.830;2023-05-07T06:04:31;62.50;;;30.63;;
23754;SDS011;12057;52.042;6.830;2023-05-07T06:09:32;76.90;;;28.20;;
23754;SDS011;12057;52.042;6.830;2023-05-07T06:14:33;65.30;;;29.67;;
23754;SDS011;12057;52.042;6.830;2023-05-07T06:19:33;65.23;;;31.27;;
23754;SDS011;12057;52.042;6.830;2023-05-07T06:29:36;55.90;;;29.83;;
23754;SDS011;12057;52.042;6.830;2023-05-07T06:34:36;54.83;;;27.80;;
23754;SDS011;12057;52.042;6.830;2023-05-07T06:39:38;51.50;;;27.60;;
23754;SDS011;12057;52.042;6.830;2023-05-07T06:44:38;49.03;;;27.43;;
23754;SDS011;12057;52.042;6.830;2023-05-07T06:49:39;51.10;;;28.43;;
23754;SDS011;12057;52.042;6.830;2023-05-07T06:54:40;52.63;;;26.47;;
23754;SDS011;12057;52.042;6.830;2023-05-07T06:59:41;47.67;;;25.67;;
23754;SDS011;12057;52.042;6.830;2023-05-07T07:04:41;42.60;;;24.93;;
23754;SDS011;12057;52.042;6.830;2023-05-07T07:09:42;44.27;;;25.53;;
23754;SDS011;12057;52.042;6.830;2023-05-07T07:14:43;47.40;;;25.53;;
23754;SDS011;12057;52.042;6.830;2023-05-07T07:19:44;38.93;;;22.97;;
23754;SDS011;12057;52.042;6.830;2023-05-07T07:24:44;51.20;;;23.27;;
23754;SDS011;12057;52.042;6.830;2023-05-07T07:29:45;43.00;;;24.23;;
23754;SDS011;12057;52.042;6.830;2023-05-07T07:34:46;41.80;;;22.60;;
23754;SDS011;12057;52.042;6.830;2023-05-07T07:39:47;45.97;;;25.53;;
23754;SDS011;12057;52.042;6.830;2023-05-07T07:44:48;44.63;;;23.60;;
23754;SDS011;12057;52.042;6.830;2023-05-07T07:49:48;48.03;;;24.03;;
23754;SDS011;12057;52.042;6.830;2023-05-07T07:54:49;45.10;;;24.07;;
23754;SDS011;12057;52.042;6.830;2023-05-07T07:59:50;39.73;;;22.10;;
23754;SDS011;12057;52.042;6.830;2023-05-07T08:04:51;40.92;;;22.35;;
23754;SDS011;12057;52.042;6.830;2023-05-07T08:09:52;41.30;;;22.13;;
23754;SDS011;12057;52.042;6.830;2023-05-07T08:14:52;39.03;;;21.13;;
23754;SDS011;12057;52.042;6.830;2023-05-07T08:19:53;37.80;;;21.50;;
23754;SDS011;12057;52.042;6.830;2023-05-07T08:24:54;37.23;;;19.93;;
23754;SDS011;12057;52.042;6.830;2023-05-07T08:29:55;33.40;;;20.17;;
23754;SDS011;12057;52.042;6.830;2023-05-07T08:34:56;37.03;;;20.13;;
23754;SDS011;12057;52.042;6.830;2023-05-07T08:39:56;33.90;;;20.23;;
23754;SDS011;12057;52.042;6.830;2023-05-07T08:44:57;31.83;;;18.77;;
23754;SDS011;12057;52.042;6.830;2023-05-07T08:50:01;31.77;;;18.30;;
23754;SDS011;12057;52.042;6.830;2023-05-07T08:55:03;33.47;;;18.92;;
23754;SDS011;12057;52.042;6.830;2023-05-07T09:00:04;34.13;;;18.40;;
23754;SDS011;12057;52.042;6.830;2023-05-07T09:05:07;26.92;;;16.08;;
23754;SDS011;12057;52.042;6.830;2023-05-07T09:10:08;31.27;;;17.05;;
23754;SDS011;12057;52.042;6.830;2023-05-07T09:15:12;20.85;;;13.73;;
23754;SDS011;12057;52.042;6.830;2023-05-07T09:20:13;25.58;;;15.10;;
23754;SDS011;12057;52.042;6.830;2023-05-07T09:25:14;27.83;;;16.63;;
23754;SDS011;12057;52.042;6.830;2023-05-07T09:30:15;28.83;;;16.00;;
23754;SDS011;12057;52.042;6.830;2023-05-07T09:35:16;25.87;;;14.83;;
23754;SDS011;12057;52.042;6.830;2023-05-07T09:40:21;20.25;;;12.52;;
23754;SDS011;12057;52.042;6.830;2023-05-07T09:45:27;26.38;;;14.05;;
23754;SDS011;12057;52.042;6.830;2023-05-07T09:50:29;21.75;;;13.60;;
23754;SDS011;12057;52.042;6.830;2023-05-07T09:55:36;24.50;;;13.40;;
23754;SDS011;12057;52.042;6.830;2023-05-07T10:00:38;24.15;;;13.68;;
23754;SDS011;12057;52.042;6.830;2023-05-07T10:05:41;29.88;;;13.07;;
23754;SDS011;12057;52.042;6.830;2023-05-07T10:10:44;24.55;;;12.32;;
23754;SDS011;12057;52.042;6.830;2023-05-07T10:15:46;18.60;;;11.10;;
23754;SDS011;12057;52.042;6.830;2023-05-07T10:20:48;22.95;;;13.20;;
23754;SDS011;12057;52.042;6.830;2023-05-07T10:25:52;26.73;;;14.10;;
23754;SDS011;12057;52.042;6.830;2023-05-07T10:31:16;24.95;;;13.63;;
23754;SDS011;12057;52.042;6.830;2023-05-07T10:36:37;25.65;;;14.85;;
23754;SDS011;12057;52.042;6.830;2023-05-07T10:41:39;27.42;;;13.68;;
23754;SDS011;12057;52.042;6.830;2023-05-07T10:46:40;25.48;;;13.48;;
23754;SDS011;12057;52.042;6.830;2023-05-07T10:51:41;28.17;;;14.40;;
23754;SDS011;12057;52.042;6.830;2023-05-07T10:56:42;25.20;;;13.97;;
23754;SDS011;12057;52.042;6.830;2023-05-07T11:01:50;23.75;;;13.07;;
23754;SDS011;12057;52.042;6.830;2023-05-07T11:12:09;23.48;;;12.27;;
23754;SDS011;12057;52.042;6.830;2023-05-07T11:17:10;19.83;;;12.40;;
23754;SDS011;12057;52.042;6.830;2023-05-07T11:22:53;22.27;;;13.20;;
23754;SDS011;12057;52.042;6.830;2023-05-07T11:27:37;23.15;;;13.52;;
23754;SDS011;12057;52.042;6.830;2023-05-07T11:32:39;29.67;;;14.13;;
23754;SDS011;12057;52.042;6.830;2023-05-07T11:37:39;22.50;;;11.93;;
23754;SDS011;12057;52.042;6.830;2023-05-07T11:42:41;21.58;;;12.00;;
23754;SDS011;12057;52.042;6.830;2023-05-07T11:47:44;18.48;;;11.20;;
23754;SDS011;12057;52.042;6.830;2023-05-07T11:52:51;24.58;;;12.35;;
23754;SDS011;12057;52.042;6.830;2023-05-07T11:57:52;21.75;;;12.18;;
23754;SDS011;12057;52.042;6.830;2023-05-07T12:02:53;22.50;;;13.57;;
23754;SDS011;12057;52.042;6.830;2023-05-07T12:07:57;19.53;;;12.67;;
23754;SDS011;12057;52.042;6.830;2023-05-07T12:12:58;21.13;;;12.23;;
23754;SDS011;12057;52.042;6.830;2023-05-07T12:17:59;23.67;;;13.20;;
23754;SDS011;12057;52.042;6.830;2023-05-07T12:23:00;21.53;;;12.80;;
23754;SDS011;12057;52.042;6.830;2023-05-07T12:28:02;24.95;;;13.63;;
23754;SDS011;12057;52.042;6.830;2023-05-07T12:33:05;19.55;;;11.48;;
23754;SDS011;12057;52.042;6.830;2023-05-07T12:38:09;21.88;;;12.38;;
23754;SDS011;12057;52.042;6.830;2023-05-07T12:43:23;19.15;;;11.57;;
23754;SDS011;12057;52.042;6.830;2023-05-07T12:48:25;24.60;;;12.25;;
23754;SDS011;12057;52.042;6.830;2023-05-07T12:53:29;23.65;;;12.80;;
23754;SDS011;12057;52.042;6.830;2023-05-07T12:58:32;17.13;;;10.55;;
23754;SDS011;12057;52.042;6.830;2023-05-07T13:03:36;25.60;;;11.35;;
23754;SDS011;12057;52.042;6.830;2023-05-07T13:08:38;18.17;;;9.35;;
23754;SDS011;12057;52.042;6.830;2023-05-07T13:13:43;18.63;;;8.20;;
23754;SDS011;12057;52.042;6.830;2023-05-07T13:18:43;14.70;;;8.27;;
23754;SDS011;12057;52.042;6.830;2023-05-07T13:23:45;15.60;;;7.50;;
23754;SDS011;12057;52.042;6.830;2023-05-07T13:28:46;14.07;;;6.50;;
23754;SDS011;12057;52.042;6.830;2023-05-07T13:33:47;12.30;;;7.63;;
23754;SDS011;12057;52.042;6.830;2023-05-07T13:38:47;9.00;;;6.13;;
23754;SDS011;12057;52.042;6.830;2023-05-07T13:43:48;12.73;;;6.23;;
23754;SDS011;12057;52.042;6.830;2023-05-07T13:48:49;11.67;;;6.37;;
23754;SDS011;12057;52.042;6.830;2023-05-07T13:53:51;15.48;;;5.90;;
23754;SDS011;12057;52.042;6.830;2023-05-07T13:58:52;16.75;;;5.75;;
23754;SDS011;12057;52.042;6.830;2023-05-07T14:03:53;9.40;;;5.77;;
23754;SDS011;12057;52.042;6.830;2023-05-07T14:08:54;9.97;;;5.77;;
23754;SDS011;12057;52.042;6.830;2023-05-07T14:13:54;12.97;;;5.80;;
23754;SDS011;12057;52.042;6.830;2023-05-07T14:18:56;14.25;;;6.97;;
23754;SDS011;12057;52.042;6.830;2023-05-07T14:23:57;10.00;;;5.90;;
23754;SDS011;12057;52.042;6.830;2023-05-07T14:28:58;15.03;;;6.50;;
23754;SDS011;12057;52.042;6.830;2023-05-07T14:33:59;14.33;;;6.10;;
23754;SDS011;12057;52.042;6.830;2023-05-07T14:39:00;9.30;;;5.77;;
23754;SDS011;12057;52.042;6.830;2023-05-07T14:44:01;10.23;;;6.07;;
23754;SDS011;12057;52.042;6.830;2023-05-07T14:49:04;12.70;;;5.75;;
23754;SDS011;12057;52.042;6.830;2023-05-07T14:54:05;11.02;;;6.45;;
23754;SDS011;12057;52.042;6.830;2023-05-07T14:59:06;12.03;;;6.37;;
23754;SDS011;12057;52.042;6.830;2023-05-07T15:04:07;13.05;;;7.13;;
23754;SDS011;12057;52.042;6.830;2023-05-07T15:09:08;12.57;;;5.47;;
23754;SDS011;12057;52.042;6.830;2023-05-07T15:14:09;13.73;;;6.63;;
23754;SDS011;12057;52.042;6.830;2023-05-07T15:19:10;9.93;;;5.73;;
23754;SDS011;12057;52.042;6.830;2023-05-07T15:24:10;9.03;;;5.37;;
23754;SDS011;12057;52.042;6.830;2023-05-07T15:29:11;7.07;;;4.33;;
23754;SDS011;12057;52.042;6.830;2023-05-07T15:34:12;10.43;;;4.70;;
23754;SDS011;12057;52.042;6.830;2023-05-07T15:39:15;7.82;;;5.40;;
23754;SDS011;12057;52.042;6.830;2023-05-07T15:44:16;9.02;;;5.22;;
23754;SDS011;12057;52.042;6.830;2023-05-07T15:49:16;10.77;;;5.20;;
23754;SDS011;12057;52.042;6.830;2023-05-07T15:54:17;10.20;;;5.57;;
23754;SDS011;12057;52.042;6.830;2023-05-07T15:59:20;11.88;;;6.00;;
23754;SDS011;12057;52.042;6.830;2023-05-07T16:04:20;8.07;;;5.13;;
23754;SDS011;12057;52.042;6.830;2023-05-07T16:09:21;7.53;;;4.90;;
23754;SDS011;12057;52.042;6.830;2023-05-07T16:14:24;9.98;;;5.03;;
23754;SDS011;12057;52.042;6.830;2023-05-07T16:19:24;10.70;;;4.93;;
23754;SDS011;12057;52.042;6.830;2023-05-07T16:24:25;9.67;;;5.13;;
23754;SDS011;12057;52.042;6.830;2023-05-07T16:29:26;11.20;;;5.50;;
23754;SDS011;12057;52.042;6.830;2023-05-07T16:34:27;10.13;;;6.80;;
23754;SDS011;12057;52.042;6.830;2023-05-07T16:39:28;12.00;;;6.10;;
23754;SDS011;12057;52.042;6.830;2023-05-07T16:44:28;11.30;;;6.60;;
23754;SDS011;12057;52.042;6.830;2023-05-07T16:49:29;15.37;;;6.47;;
23754;SDS011;12057;52.042;6.830;2023-05-07T16:54:30;12.10;;;7.60;;
23754;SDS011;12057;52.042;6.830;2023-05-07T16:59:31;12.17;;;7.17;;
23754;SDS011;12057;52.042;6.830;2023-05-07T17:04:32;13.25;;;7.75;;
23754;SDS011;12057;52.042;6.830;2023-05-07T17:09:33;12.93;;;7.23;;
23754;SDS011;12057;52.042;6.830;2023-05-07T17:14:34;11.10;;;6.60;;
23754;SDS011;12057;52.042;6.830;2023-05-07T17:19:35;14.80;;;6.67;;
23754;SDS011;12057;52.042;6.830;2023-05-07T17:24:38;13.25;;;7.43;;
23754;SDS011;12057;52.042;6.830;2023-05-07T17:29:39;12.07;;;6.73;;
23754;SDS011;12057;52.042;6.830;2023-05-07T17:34:40;15.90;;;7.30;;
23754;SDS011;12057;52.042;6.830;2023-05-07T17:39:40;13.90;;;7.83;;
23754;SDS011;12057;52.042;6.830;2023-05-07T17:44:41;17.17;;;7.17;;
23754;SDS011;12057;52.042;6.830;2023-05-07T17:49:42;17.03;;;8.83;;
23754;SDS011;12057;52.042;6.830;2023-05-07T17:54:43;11.70;;;7.57;;
23754;SDS011;12057;52.042;6.830;2023-05-07T17:59:44;16.30;;;7.43;;
23754;SDS011;12057;52.042;6.830;2023-05-07T18:04:45;15.50;;;7.70;;
23754;SDS011;12057;52.042;6.830;2023-05-07T18:09:45;17.60;;;8.10;;
23754;SDS011;12057;52.042;6.830;2023-05-07T18:14:46;18.50;;;8.83;;
23754;SDS011;12057;52.042;6.830;2023-05-07T18:19:47;12.33;;;7.53;;
23754;SDS011;12057;52.042;6.830;2023-05-07T18:24:48;11.40;;;6.90;;
23754;SDS011;12057;52.042;6.830;2023-05-07T18:29:49;12.83;;;7.20;;
23754;SDS011;12057;52.042;6.830;2023-05-07T18:34:49;14.07;;;7.20;;
23754;SDS011;12057;52.042;6.830;2023-05-07T18:39:50;11.53;;;6.67;;
23754;SDS011;12057;52.042;6.830;2023-05-07T18:44:51;13.63;;;6.57;;
23754;SDS011;12057;52.042;6.830;2023-05-07T18:49:52;17.23;;;6.23;;
23754;SDS011;12057;52.042;6.830;2023-05-07T18:54:53;17.13;;;6.80;;
23754;SDS011;12057;52.042;6.830;2023-05-07T18:59:54;11.17;;;6.70;;
23754;SDS011;12057;52.042;6.830;2023-05-07T19:04:55;14.48;;;7.65;;
23754;SDS011;12057;52.042;6.830;2023-05-07T19:09:56;12.27;;;6.83;;
23754;SDS011;12057;52.042;6.830;2023-05-07T19:15:00;18.30;;;7.07;;
23754;SDS011;12057;52.042;6.830;2023-05-07T19:20:01;11.38;;;7.03;;
23754;SDS011;12057;52.042;6.830;2023-05-07T19:25:03;15.18;;;6.95;;
23754;SDS011;12057;52.042;6.830;2023-05-07T19:30:06;15.85;;;7.53;;
23754;SDS011;12057;52.042;6.830;2023-05-07T19:35:07;15.00;;;7.25;;
23754;SDS011;12057;52.042;6.830;2023-05-07T19:40:08;19.07;;;8.10;;
23754;SDS011;12057;52.042;6.830;2023-05-07T19:45:09;16.67;;;7.82;;
23754;SDS011;12057;52.042;6.830;2023-05-07T19:50:11;18.30;;;7.95;;
23754;SDS011;12057;52.042;6.830;2023-05-07T19:55:11;11.13;;;7.57;;
23754;SDS011;12057;52.042;6.830;2023-05-07T20:00:12;16.13;;;9.00;;
23754;SDS011;12057;52.042;6.830;2023-05-07T20:05:13;14.93;;;9.03;;
23754;SDS011;12057;52.042;6.830;2023-05-07T20:10:14;13.53;;;8.83;;
23754;SDS011;12057;52.042;6.830;2023-05-07T20:15:15;18.60;;;9.30;;
23754;SDS011;12057;52.042;6.830;2023-05-07T20:20:16;20.43;;;9.27;;
23754;SDS011;12057;52.042;6.830;2023-05-07T20:25:17;22.03;;;10.90;;
23754;SDS011;12057;52.042;6.830;2023-05-07T20:30:17;25.27;;;10.80;;
23754;SDS011;12057;52.042;6.830;2023-05-07T20:40:20;15.70;;;9.30;;
23754;SDS011;12057;52.042;6.830;2023-05-07T20:45:21;20.40;;;9.93;;
23754;SDS011;12057;52.042;6.830;2023-05-07T20:50:24;19.07;;;10.67;;
23754;SDS011;12057;52.042;6.830;2023-05-07T20:55:28;15.52;;;10.05;;
23754;SDS011;12057;52.042;6.830;2023-05-07T21:00:29;19.33;;;10.73;;
23754;SDS011;12057;52.042;6.830;2023-05-07T21:05:30;17.67;;;10.53;;
23754;SDS011;12057;52.042;6.830;2023-05-07T21:10:31;19.25;;;10.73;;
23754;SDS011;12057;52.042;6.830;2023-05-07T21:15:35;18.70;;;10.67;;
23754;SDS011;12057;52.042;6.830;2023-05-07T21:20:36;23.90;;;11.10;;
23754;SDS011;12057;52.042;6.830;2023-05-07T21:25:37;20.42;;;10.48;;
23754;SDS011;12057;52.042;6.830;2023-05-07T21:30:39;18.08;;;10.73;;
23754;SDS011;12057;52.042;6.830;2023-05-07T21:35:40;18.30;;;10.93;;
23754;SDS011;12057;52.042;6.830;2023-05-07T21:40:41;16.63;;;10.53;;
23754;SDS011;12057;52.042;6.830;2023-05-07T21:45:42;22.27;;;10.73;;
23754;SDS011;12057;52.042;6.830;2023-05-07T21:50:43;18.90;;;11.67;;
23754;SDS011;12057;52.042;6.830;2023-05-07T21:55:44;19.17;;;10.90;;
23754;SDS011;12057;52.042;6.830;2023-05-07T22:00:44;21.63;;;11.17;;
23754;SDS011;12057;52.042;6.830;2023-05-07T22:05:45;17.80;;;10.90;;
23754;SDS011;12057;52.042;6.830;2023-05-07T22:10:46;19.90;;;11.60;;
23754;SDS011;12057;52.042;6.830;2023-05-07T22:15:47;18.73;;;11.27;;
23754;SDS011;12057;52.042;6.830;2023-05-07T22:20:49;24.13;;;10.67;;
23754;SDS011;12057;52.042;6.830;2023-05-07T22:25:50;16.95;;;10.25;;
23754;SDS011;12057;52.042;6.830;2023-05-07T22:30:51;18.13;;;10.50;;
23754;SDS011;12057;52.042;6.830;2023-05-07T22:35:53;17.98;;;11.40;;
23754;SDS011;12057;52.042;6.830;2023-05-07T22:40:54;18.23;;;11.07;;
23754;SDS011;12057;52.042;6.830;2023-05-07T22:45:58;22.90;;;11.30;;
23754;SDS011;12057;52.042;6.830;2023-05-07T22:51:02;17.25;;;10.50;;
23754;SDS011;12057;52.042;6.830;2023-05-07T22:56:04;18.17;;;10.87;;
23754;SDS011;12057;52.042;6.830;2023-05-07T23:01:10;19.50;;;11.15;;
23754;SDS011;12057;52.042;6.830;2023-05-07T23:06:14;19.45;;;11.98;;
23754;SDS011;12057;52.042;6.830;2023-05-07T23:11:15;19.17;;;12.20;;
23754;SDS011;12057;52.042;6.830;2023-05-07T23:16:15;17.47;;;11.33;;
23754;SDS011;12057;52.042;6.830;2023-05-07T23:21:16;21.73;;;12.53;;
23754;SDS011;12057;52.042;6.830;2023-05-07T23:26:17;23.53;;;13.43;;
23754;SDS011;12057;52.042;6.830;2023-05-07T23:31:18;18.60;;;11.83;;
23754;SDS011;12057;52.042;6.830;2023-05-07T23:36:19;19.47;;;12.50;;
23754;SDS011;12057;52.042;6.830;2023-05-07T23:41:19;20.13;;;12.73;;
23754;SDS011;12057;52.042;6.830;2023-05-07T23:46:20;22.47;;;12.40;;
23754;SDS011;12057;52.042;6.830;2023-05-07T23:51:21;19.57;;;12.87;;
23754;SDS011;12057;52.042;6.830;2023-05-07T23:56:22;26.67;;;13.00;;
